Birdsville, Australia
Current Conditions -  °F | °C
As of 2:00 PM on Sunday 26 Oct 2014 (Local Time) from YOLD Reporting Station
Clear Clear  
Wind Chill: 91°   Ceiling: Unl
Heat Index: 91°   Visibility: 6mi
Dew Point: 36°   Wind: 10mph
Humidity: 14%   Direction: 70°ENE
Pressure: 29.8"   Gusts: NA
Location:  25.9°S, 139.35°E
Report Text: YOLD 260400Z AUTO 07009KT 9999 // NCD 33/02 Q1009
Loading
Personal Weather Stations






























Interactive Weather Map
Tropical Storm Tracking
New forecast layout! Learn more

10-Day Weather Forecast

Advertisements
Track Severe Weather on mobile